Time;durP1;ratioP1;P1;durP2;ratioP2;P2;SDS_P1;SDS_P2;PMS_P1;PMS_P2;Temp;Humidity;BMP_temperature;BMP_pressure;BME280_temperature;BME280_humidity;BME280_pressure;Samples;Min_cycle;Max_cycle;Signal;HPM_P1;HPM_P2
2023/04/15 00:02:18;;;;;;;315.93;301.27;;;;;;;6.69;100.00;101139.72;5053393;28;20458;-47
2023/04/15 00:04:46;;;;;;;300.43;286.53;;;;;;;6.68;100.00;101124.84;5057032;28;20439;-47
2023/04/15 00:07:15;;;;;;;382.27;361.93;;;;;;;6.72;100.00;101129.81;5056345;28;20455;-45
2023/04/15 00:09:43;;;;;;;461.37;432.50;;;;;;;6.74;100.00;101133.13;5056372;28;20423;-46
2023/04/15 00:12:11;;;;;;;478.60;446.20;;;;;;;6.74;100.00;101133.13;5055667;28;20540;-47
2023/04/15 00:14:39;;;;;;;477.70;442.60;;;;;;;6.80;100.00;101132.47;5055698;28;20438;-47
2023/04/15 00:17:07;;;;;;;509.23;473.43;;;;;;;6.80;100.00;101130.66;5055416;28;20467;-45
2023/04/15 00:19:36;;;;;;;509.67;473.70;;;;;;;6.84;100.00;101129.31;5055614;28;20412;-44
2023/04/15 00:22:05;;;;;;;505.43;469.83;;;;;;;6.82;100.00;101136.59;5054662;28;20520;-44
2023/04/15 00:24:33;;;;;;;468.00;435.00;;;;;;;6.79;100.00;101133.44;5054729;28;20441;-45
2023/04/15 00:27:01;;;;;;;457.73;427.73;;;;;;;6.83;100.00;101129.50;5054686;28;20805;-45
2023/04/15 00:29:29;;;;;;;447.33;417.83;;;;;;;6.83;100.00;101117.06;5054775;28;20431;-46
2023/04/15 00:31:58;;;;;;;453.80;426.10;;;;;;;6.77;100.00;101123.03;5050895;28;20455;-43
2023/04/15 00:34:27;;;;;;;455.83;428.30;;;;;;;6.79;100.00;101125.50;5054595;28;20526;-48
2023/04/15 00:36:57;;;;;;;444.10;418.20;;;;;;;6.79;100.00;101128.16;5055289;28;20454;-46
2023/04/15 00:39:24;;;;;;;455.93;429.07;;;;;;;6.82;100.00;101118.06;5055158;28;20427;-43
2023/04/15 00:41:53;;;;;;;456.57;427.27;;;;;;;6.78;100.00;101119.38;5054631;28;20824;-48
2023/04/15 00:44:20;;;;;;;470.50;438.90;;;;;;;6.78;100.00;101129.97;5055091;28;20994;-47
2023/04/15 00:46:51;;;;;;;461.70;431.20;;;;;;;6.84;100.00;101123.22;5054834;28;20502;-46
2023/04/15 00:49:19;;;;;;;469.83;438.33;;;;;;;6.83;100.00;101117.06;5054747;28;20438;-49
2023/04/15 00:51:47;;;;;;;472.23;439.90;;;;;;;6.88;100.00;101125.34;5054462;28;20482;-44
2023/04/15 00:54:17;;;;;;;461.07;430.37;;;;;;;6.85;100.00;101109.78;5054863;28;20467;-45
2023/04/15 00:56:45;;;;;;;453.53;421.13;;;;;;;6.85;100.00;101114.25;5054935;28;20455;-48
2023/04/15 00:59:14;;;;;;;450.73;418.90;;;;;;;6.83;100.00;101114.44;5053950;28;20450;-44
2023/04/15 01:01:44;;;;;;;449.93;418.60;;;;;;;6.83;100.00;101116.25;5052381;28;21072;-45
2023/04/15 01:04:12;;;;;;;438.97;408.80;;;;;;;6.84;100.00;101110.75;5053941;28;20433;-45
2023/04/15 01:06:39;;;;;;;445.40;416.40;;;;;;;6.85;100.00;101116.91;5053856;28;20462;-45
2023/04/15 01:09:07;;;;;;;433.00;405.77;;;;;;;6.83;100.00;101114.44;5053653;28;20435;-44
2023/04/15 01:11:36;;;;;;;422.40;395.40;;;;;;;6.84;100.00;101107.31;5053053;28;20460;-43
2023/04/15 01:14:04;;;;;;;406.53;381.43;;;;;;;6.79;100.00;101109.59;5053704;28;20483;-44
2023/04/15 01:16:32;;;;;;;398.53;373.93;;;;;;;6.77;100.00;101109.78;5053631;28;20470;-46
2023/04/15 01:19:00;;;;;;;392.40;368.73;;;;;;;6.78;100.00;101097.34;5053699;28;20431;-44
2023/04/15 01:21:28;;;;;;;407.63;384.07;;;;;;;6.79;100.00;101099.81;5048784;28;20578;-46
2023/04/15 01:23:57;;;;;;;402.67;380.03;;;;;;;6.82;100.00;101096.84;5053361;28;20515;-44
2023/04/15 01:26:27;;;;;;;375.70;355.90;;;;;;;6.82;100.00;101086.25;5053097;28;20451;-46
2023/04/15 01:28:55;;;;;;;376.57;356.30;;;;;;;6.83;100.00;101090.56;5053266;28;20883;-44
2023/04/15 01:31:22;;;;;;;404.93;381.30;;;;;;;6.83;100.00;101087.91;5053068;28;20427;-43
2023/04/15 01:33:50;;;;;;;410.90;387.60;;;;;;;6.83;100.00;101085.25;5048994;28;20479;-44
2023/04/15 01:36:18;;;;;;;391.07;370.07;;;;;;;6.87;100.00;101085.78;5052815;28;20928;-44
2023/04/15 01:38:46;;;;;;;355.03;336.90;;;;;;;6.86;100.00;101092.88;5052968;28;20424;-43
2023/04/15 01:41:14;;;;;;;371.73;352.50;;;;;;;6.85;100.00;101085.09;5052795;28;20488;-44
2023/04/15 01:43:43;;;;;;;319.30;303.40;;;;;;;6.85;100.00;101090.38;5052052;28;20466;-44
2023/04/15 01:46:11;;;;;;;376.67;357.60;;;;;;;6.86;100.00;101082.28;5052747;28;20438;-44
2023/04/15 01:48:39;;;;;;;304.43;289.27;;;;;;;6.86;100.00;101078.81;5052873;28;20455;-47
2023/04/15 01:51:07;;;;;;;346.27;329.30;;;;;;;6.86;100.00;101082.28;5052648;28;20431;-46
2023/04/15 01:53:34;;;;;;;298.43;283.67;;;;;;;6.89;100.00;101084.59;5052013;28;20991;-42
2023/04/15 01:56:02;;;;;;;351.67;334.93;;;;;;;6.88;100.00;101080.28;5052588;28;20435;-42
2023/04/15 01:58:30;;;;;;;256.23;243.67;;;;;;;6.85;100.00;101080.63;5052540;28;20435;-45
2023/04/15 02:00:59;;;;;;;329.63;313.40;;;;;;;6.86;100.00;101084.94;5052456;28;20457;-44
2023/04/15 02:03:27;;;;;;;296.50;281.67;;;;;;;6.89;100.00;101087.25;5048986;28;20459;-43
2023/04/15 02:05:56;;;;;;;310.03;295.63;;;;;;;6.89;100.00;101079.31;5052273;28;20438;-46
2023/04/15 02:08:24;;;;;;;294.37;279.37;;;;;;;6.91;100.00;101081.78;5052404;28;20451;-46
2023/04/15 02:10:52;;;;;;;324.67;308.93;;;;;;;6.91;100.00;101085.25;5052314;28;20787;-43
2023/04/15 02:13:19;;;;;;;303.80;289.13;;;;;;;6.89;100.00;101086.44;5051126;28;20510;-45
2023/04/15 02:15:48;;;;;;;316.70;301.47;;;;;;;6.92;100.00;101083.44;5051338;28;20439;-45
2023/04/15 02:18:17;;;;;;;283.13;269.60;;;;;;;6.91;100.00;101087.91;5051984;28;20454;-43
2023/04/15 02:20:45;;;;;;;278.80;265.63;;;;;;;6.88;100.00;101082.09;5051985;28;20427;-43
2023/04/15 02:23:13;;;;;;;304.80;290.30;;;;;;;6.90;100.00;101080.94;5051547;28;20460;-44
2023/04/15 02:25:41;;;;;;;283.80;269.47;;;;;;;6.92;100.00;101078.97;5051987;28;20477;-44
2023/04/15 02:28:20;;;;;;;291.10;277.30;;;;;;;6.91;100.00;101073.81;5052049;28;20459;-43
2023/04/15 02:30:49;;;;;;;294.20;279.77;;;;;;;6.91;100.00;101095.88;5052067;28;20423;-43
2023/04/15 02:33:19;;;;;;;288.83;275.47;;;;;;;6.94;100.00;101084.09;5051103;28;20456;-44
2023/04/15 02:35:46;;;;;;;293.27;278.90;;;;;;;6.93;100.00;101093.06;5051986;28;20435;-48
2023/04/15 02:38:16;;;;;;;288.93;274.83;;;;;;;6.95;100.00;101091.06;5051868;28;20462;-43
2023/04/15 02:40:43;;;;;;;304.90;290.37;;;;;;;7.01;100.00;101085.13;5051936;28;20486;-44
2023/04/15 02:43:11;;;;;;;277.13;264.10;;;;;;;7.00;100.00;101094.06;5051241;28;20470;-43
2023/04/15 02:45:39;;;;;;;286.77;273.10;;;;;;;6.98;100.00;101096.03;5051606;28;20496;-43
2023/04/15 02:48:07;;;;;;;312.27;296.87;;;;;;;7.02;100.00;101102.66;5051768;28;20452;-44
2023/04/15 02:50:37;;;;;;;291.33;277.40;;;;;;;6.99;100.00;101100.38;5051684;28;20929;-45
2023/04/15 02:53:05;;;;;;;295.83;282.00;;;;;;;7.01;100.00;101104.50;5051112;28;20458;-47
2023/04/15 02:55:33;;;;;;;290.03;276.83;;;;;;;7.03;100.00;101107.81;5051574;28;20481;-47
2023/04/15 02:58:00;;;;;;;289.67;276.70;;;;;;;7.06;100.00;101104.81;5051255;28;20995;-43
2023/04/15 03:00:28;;;;;;;261.33;249.63;;;;;;;7.11;100.00;101107.81;5051729;28;20442;-43
2023/04/15 03:02:59;;;;;;;238.83;228.13;;;;;;;7.09;100.00;101119.56;5047975;28;20459;-43
2023/04/15 03:05:27;;;;;;;211.90;202.60;;;;;;;7.07;100.00;101111.81;5051638;28;20424;-43
2023/04/15 03:07:56;;;;;;;158.17;150.63;;;;;;;7.06;100.00;101118.09;5051366;28;20834;-44
2023/04/15 03:10:24;;;;;;;94.67;89.13;;;;;;;7.10;100.00;101119.44;5051355;28;20435;-44
2023/04/15 03:12:51;;;;;;;62.00;57.63;;;;;;;7.14;100.00;101119.91;5050603;28;20470;-44
2023/04/15 03:15:20;;;;;;;64.80;59.60;;;;;;;7.14;100.00;101109.28;5051331;28;20837;-46
2023/04/15 03:17:48;;;;;;;55.67;51.50;;;;;;;7.09;100.00;101114.28;5051495;28;20871;-44
2023/04/15 03:20:16;;;;;;;56.00;51.80;;;;;;;7.12;100.00;101108.63;5051552;28;20511;-43
2023/04/15 03:22:44;;;;;;;61.87;57.47;;;;;;;7.15;100.00;101108.31;5050696;28;20501;-49
2023/04/15 03:25:13;;;;;;;61.77;57.40;;;;;;;7.19;100.00;101101.69;5051530;28;20481;-43
2023/04/15 03:27:41;;;;;;;59.17;54.93;;;;;;;7.22;100.00;101104.84;5055399;28;20451;-46
2023/04/15 03:30:10;;;;;;;72.13;67.60;;;;;;;7.19;100.00;101094.56;5055390;28;21155;-43
2023/04/15 03:32:37;;;;;;;62.77;57.80;;;;;;;7.21;100.00;101092.56;5052444;28;20474;-45
2023/04/15 03:35:06;;;;;;;65.90;61.10;;;;;;;7.24;100.00;101096.72;5055118;28;20562;-45
2023/04/15 03:37:33;;;;;;;69.20;64.57;;;;;;;7.24;100.00;101089.59;5055016;28;20451;-44
2023/04/15 03:40:01;;;;;;;65.40;61.00;;;;;;;7.27;100.00;101088.41;5055006;28;20442;-44
2023/04/15 03:42:30;;;;;;;62.43;57.90;;;;;;;7.26;100.00;101088.59;5054480;28;20505;-44
2023/04/15 03:44:59;;;;;;;67.57;62.60;;;;;;;7.29;100.00;101093.56;5055190;28;20431;-43
2023/04/15 03:47:27;;;;;;;69.90;65.50;;;;;;;7.29;100.00;101097.03;5054891;28;20553;-43
2023/04/15 03:49:54;;;;;;;81.20;75.70;;;;;;;7.30;100.00;101097.88;5054942;28;20994;-43
2023/04/15 03:52:22;;;;;;;89.13;83.33;;;;;;;7.27;100.00;101095.53;5054104;28;20463;-44
2023/04/15 03:54:50;;;;;;;102.50;96.90;;;;;;;7.29;100.00;101090.91;5055005;28;20482;-45
2023/04/15 03:57:17;;;;;;;102.07;96.37;;;;;;;7.27;100.00;101096.38;5054819;28;20458;-43
2023/04/15 03:59:46;;;;;;;97.00;91.20;;;;;;;7.27;100.00;101106.16;5054887;28;20431;-43
2023/04/15 04:02:14;;;;;;;122.57;115.57;;;;;;;7.23;100.00;101109.13;5054529;28;20434;-44
2023/04/15 04:04:42;;;;;;;139.30;132.37;;;;;;;7.25;100.00;101095.72;5046187;28;20542;-45
2023/04/15 04:07:15;;;;;;;141.17;133.90;;;;;;;7.25;100.00;101098.38;5054462;28;20554;-43
2023/04/15 04:09:43;;;;;;;122.80;116.23;;;;;;;7.29;100.00;101112.94;5054714;28;20629;-45
2023/04/15 04:12:13;;;;;;;170.10;161.87;;;;;;;7.29;100.00;101098.88;5054260;28;20789;-46
2023/04/15 04:14:41;;;;;;;231.10;220.80;;;;;;;7.24;100.00;101108.16;5050065;28;20471;-44
2023/04/15 04:17:10;;;;;;;187.53;177.90;;;;;;;7.26;100.00;101101.88;5054438;28;20650;-43
2023/04/15 04:19:38;;;;;;;301.10;286.50;;;;;;;7.26;100.00;101102.66;5053849;28;20431;-44
2023/04/15 04:22:06;;;;;;;305.70;291.10;;;;;;;7.31;100.00;101110.97;5054383;28;20435;-45
2023/04/15 04:24:33;;;;;;;311.77;296.50;;;;;;;7.32;100.00;101109.16;5053945;28;20466;-43
2023/04/15 04:27:01;;;;;;;320.07;304.53;;;;;;;7.32;100.00;101102.00;5054235;28;20447;-43
2023/04/15 04:29:29;;;;;;;337.47;320.50;;;;;;;7.30;100.00;101106.66;5054285;28;20439;-43
2023/04/15 04:31:57;;;;;;;330.07;312.57;;;;;;;7.31;100.00;101112.78;5053831;28;20436;-46
2023/04/15 04:34:26;;;;;;;346.37;328.37;;;;;;;7.32;100.00;101119.78;5047939;28;20471;-44
2023/04/15 04:36:54;;;;;;;296.97;281.83;;;;;;;7.30;100.00;101103.16;5053337;28;20458;-45
2023/04/15 04:39:22;;;;;;;289.37;275.47;;;;;;;7.29;100.00;101118.25;5053909;28;20431;-44
2023/04/15 04:41:51;;;;;;;296.50;282.30;;;;;;;7.30;100.00;101104.00;5053768;28;20847;-47
2023/04/15 04:44:19;;;;;;;349.10;330.83;;;;;;;7.30;100.00;101119.09;5051345;28;20937;-48
2023/04/15 04:46:46;;;;;;;299.93;284.63;;;;;;;7.29;100.00;101098.88;5053985;28;20462;-42
2023/04/15 04:49:14;;;;;;;322.00;305.90;;;;;;;7.31;100.00;101107.50;5053534;28;20805;-47
2023/04/15 04:51:44;;;;;;;319.20;303.00;;;;;;;7.28;100.00;101127.22;5053878;28;20518;-44
2023/04/15 04:54:11;;;;;;;282.90;268.70;;;;;;;7.30;100.00;101111.13;5053043;28;20435;-44
2023/04/15 04:56:39;;;;;;;304.10;289.57;;;;;;;7.30;100.00;101105.81;5053422;28;20482;-48
2023/04/15 04:59:08;;;;;;;283.67;269.67;;;;;;;7.27;100.00;101109.63;5053300;28;20435;-44
2023/04/15 05:01:36;;;;;;;254.77;241.93;;;;;;;7.27;100.00;101116.75;5053652;28;20439;-43
2023/04/15 05:04:05;;;;;;;249.47;236.10;;;;;;;7.32;100.00;101106.50;5052652;28;20519;-45
2023/04/15 05:06:32;;;;;;;302.60;287.20;;;;;;;7.30;100.00;101100.50;5053376;28;20505;-47
2023/04/15 05:09:02;;;;;;;297.30;281.70;;;;;;;7.29;100.00;101106.84;5053718;28;20432;-47
2023/04/15 05:11:30;;;;;;;258.47;245.13;;;;;;;7.31;100.00;101108.31;5053174;28;20556;-43
2023/04/15 05:13:58;;;;;;;308.07;293.27;;;;;;;7.33;100.00;101100.19;5053644;28;20442;-45
2023/04/15 05:16:26;;;;;;;282.47;268.30;;;;;;;7.34;100.00;101100.03;5052488;28;20558;-47
2023/04/15 05:18:54;;;;;;;275.63;262.23;;;;;;;7.36;100.00;101105.16;5053555;28;20453;-43
2023/04/15 05:21:21;;;;;;;278.83;265.53;;;;;;;7.36;100.00;101102.50;5052971;28;20936;-42
2023/04/15 05:23:49;;;;;;;258.53;245.93;;;;;;;7.36;100.00;101107.81;5053133;28;20548;-43
2023/04/15 05:26:18;;;;;;;238.07;226.17;;;;;;;7.37;100.00;101105.00;5050423;28;20459;-43
2023/04/15 05:28:46;;;;;;;245.07;233.37;;;;;;;7.40;100.00;101095.88;5053389;28;20474;-46
2023/04/15 05:31:14;;;;;;;209.77;199.07;;;;;;;7.38;100.00;101108.50;5052733;28;21216;-42
2023/04/15 05:33:42;;;;;;;251.57;238.90;;;;;;;7.41;100.00;101100.16;5053052;28;20832;-44
2023/04/15 05:36:11;;;;;;;217.53;206.53;;;;;;;7.38;100.00;101114.59;5049780;28;20525;-45
2023/04/15 05:38:38;;;;;;;244.17;232.20;;;;;;;7.37;100.00;101120.09;5053046;28;20431;-42
2023/04/15 05:41:06;;;;;;;230.37;218.47;;;;;;;7.42;100.00;101112.44;5053025;28;20800;-44
2023/04/15 05:43:35;;;;;;;246.50;233.50;;;;;;;7.41;100.00;101122.22;5050635;28;20951;-44
2023/04/15 05:46:03;;;;;;;242.10;229.20;;;;;;;7.43;100.00;101108.81;5051951;28;20455;-48
2023/04/15 05:48:30;;;;;;;253.13;239.83;;;;;;;7.44;100.00;101121.06;5052565;28;20419;-46
2023/04/15 05:50:58;;;;;;;223.30;211.23;;;;;;;7.47;100.00;101116.25;5052892;28;20435;-44
2023/04/15 05:53:26;;;;;;;226.97;214.47;;;;;;;7.51;100.00;101116.75;5052371;28;20438;-45
2023/04/15 05:55:53;;;;;;;208.77;196.60;;;;;;;7.55;100.00;101128.69;5052181;28;20479;-46
2023/04/15 05:58:21;;;;;;;173.37;161.57;;;;;;;7.53;100.00;101120.91;5052655;28;20454;-43
2023/04/15 06:00:50;;;;;;;178.37;167.73;;;;;;;7.54;100.00;101122.56;5052178;28;20449;-44
2023/04/15 06:03:18;;;;;;;124.50;115.90;;;;;;;7.55;100.00;101123.41;5052187;28;20435;-45
2023/04/15 06:05:47;;;;;;;69.40;62.23;;;;;;;7.63;100.00;101126.03;5051848;28;20459;-47
2023/04/15 06:08:14;;;;;;;66.67;60.07;;;;;;;7.67;100.00;101119.41;5052188;28;20546;-43
2023/04/15 06:10:42;;;;;;;65.03;57.93;;;;;;;7.64;100.00;101125.88;5052492;28;20435;-43
2023/04/15 06:13:10;;;;;;;83.30;63.83;;;;;;;7.68;100.00;101150.25;5051760;28;20435;-45
2023/04/15 06:15:37;;;;;;;88.63;60.47;;;;;;;7.66;100.00;101131.84;5051784;28;20475;-48
2023/04/15 06:18:06;;;;;;;84.90;61.10;;;;;;;7.66;100.00;101152.25;5052191;28;20497;-42
2023/04/15 06:20:35;;;;;;;90.63;63.00;;;;;;;7.74;100.00;101141.59;5051793;28;20431;-46
2023/04/15 06:23:03;;;;;;;72.07;63.27;;;;;;;7.74;100.00;101141.59;5052023;28;20527;-43
2023/04/15 06:25:30;;;;;;;84.40;64.77;;;;;;;7.73;100.00;101153.22;5047738;28;20461;-45
2023/04/15 06:27:58;;;;;;;87.90;62.23;;;;;;;7.84;100.00;101146.72;5050940;28;20451;-45
2023/04/15 06:30:26;;;;;;;76.97;62.50;;;;;;;7.85;100.00;101154.53;5050604;28;21021;-43
2023/04/15 06:32:55;;;;;;;79.83;63.70;;;;;;;7.88;100.00;101159.53;5050409;28;20431;-43
2023/04/15 06:35:24;;;;;;;82.70;62.60;;;;;;;7.89;100.00;101163.81;5047076;28;20497;-43
2023/04/15 06:37:51;;;;;;;84.70;68.10;;;;;;;7.92;100.00;101168.78;5050443;28;20455;-45
2023/04/15 06:40:19;;;;;;;93.60;69.97;;;;;;;7.91;100.00;101153.88;5050535;28;20467;-42
2023/04/15 06:42:47;;;;;;;87.63;70.40;;;;;;;7.89;100.00;101160.31;5050375;28;20434;-43
2023/04/15 06:45:14;;;;;;;87.33;77.87;;;;;;;7.96;100.00;101182.56;5049628;28;20532;-45
2023/04/15 06:47:42;;;;;;;95.77;79.60;;;;;;;7.95;100.00;101175.59;5050297;28;20459;-47
2023/04/15 06:50:10;;;;;;;108.83;78.67;;;;;;;7.97;100.00;101181.56;5050418;28;20825;-43
2023/04/15 06:52:39;;;;;;;101.23;76.10;;;;;;;8.03;100.00;101175.59;5049948;28;20419;-43
2023/04/15 06:55:08;;;;;;;92.50;74.13;;;;;;;7.98;100.00;101177.91;5076595;23;20452;-42
2023/04/15 06:57:36;;;;;;;82.60;69.43;;;;;;;7.98;100.00;101170.78;5056123;28;21042;-43
2023/04/15 07:00:04;;;;;;;97.03;74.00;;;;;;;8.06;100.00;101183.22;5055904;28;20999;-44
2023/04/15 07:02:32;;;;;;;98.77;72.40;;;;;;;8.14;100.00;101189.34;5055794;28;20431;-42
2023/04/15 07:05:00;;;;;;;98.80;71.67;;;;;;;8.13;100.00;101177.03;5056878;28;20471;-43
2023/04/15 07:07:28;;;;;;;96.07;70.87;;;;;;;8.12;100.00;101179.88;5055735;28;20438;-46
2023/04/15 07:09:57;;;;;;;89.23;69.30;;;;;;;8.19;100.00;101184.34;5055696;28;20435;-45
2023/04/15 07:12:25;;;;;;;81.57;63.70;;;;;;;8.23;100.00;101196.28;5055261;28;20431;-49
2023/04/15 07:14:52;;;;;;;86.07;66.37;;;;;;;8.24;100.00;101215.72;5055688;28;20467;-42
2023/04/15 07:17:20;;;;;;;94.63;62.63;;;;;;;8.27;100.00;101210.06;5056305;28;20478;-42
2023/04/15 07:19:48;;;;;;;89.67;68.30;;;;;;;8.30;100.00;101213.22;5053351;28;20435;-45
2023/04/15 07:22:15;;;;;;;94.30;63.97;;;;;;;8.31;100.00;101212.22;5054395;28;20777;-44
2023/04/15 07:24:43;;;;;;;71.73;60.90;;;;;;;8.25;100.00;101214.69;5055076;28;20463;-44
2023/04/15 07:27:12;;;;;;;78.03;59.33;;;;;;;8.27;100.00;101218.03;5054848;28;20423;-45
2023/04/15 07:29:40;;;;;;;63.70;56.30;;;;;;;8.28;100.00;101217.88;5055449;28;20440;-45
2023/04/15 07:32:09;;;;;;;71.63;58.00;;;;;;;8.28;100.00;101211.75;5055782;28;20439;-45
2023/04/15 07:34:37;;;;;;;61.03;53.37;;;;;;;8.29;100.00;101224.03;5052586;28;20983;-48
2023/04/15 07:37:05;;;;;;;63.03;54.40;;;;;;;8.20;100.00;101215.22;5054530;28;20558;-42
2023/04/15 07:39:32;;;;;;;58.60;52.30;;;;;;;8.25;100.00;101220.84;5055654;28;20435;-43
2023/04/15 07:42:00;;;;;;;60.70;53.03;;;;;;;8.29;100.00;101229.34;5055007;28;21032;-45
2023/04/15 07:44:30;;;;;;;60.63;52.77;;;;;;;8.28;100.00;101231.16;5054109;28;20479;-48
2023/04/15 07:46:58;;;;;;;66.13;53.43;;;;;;;8.31;100.00;101230.84;5055115;28;21264;-47
2023/04/15 07:49:25;;;;;;;61.10;52.97;;;;;;;8.32;100.00;101234.31;5056485;28;20522;-45
2023/04/15 07:51:53;;;;;;;63.67;55.90;;;;;;;8.33;100.00;101239.44;5055178;28;20444;-48
2023/04/15 07:54:21;;;;;;;68.70;52.57;;;;;;;8.25;100.00;101226.16;5055648;28;20470;-48
2023/04/15 07:56:49;;;;;;;60.63;52.57;;;;;;;8.35;100.00;101226.00;5054334;28;20466;-47
2023/04/15 07:59:17;;;;;;;62.50;55.70;;;;;;;8.49;100.00;101235.09;5055988;28;20495;-47
2023/04/15 08:01:47;;;;;;;61.20;54.50;;;;;;;8.51;100.00;101238.44;5055713;28;20521;-47
2023/04/15 08:04:14;;;;;;;58.83;52.53;;;;;;;8.56;100.00;101231.59;5055948;28;20454;-44
2023/04/15 08:06:42;;;;;;;56.57;50.67;;;;;;;8.56;100.00;101241.41;5055775;28;20423;-46
2023/04/15 08:09:10;;;;;;;58.80;52.50;;;;;;;8.53;100.00;101245.22;5056015;28;20458;-44
2023/04/15 08:11:38;;;;;;;59.60;53.40;;;;;;;8.55;100.00;101243.22;5055903;28;20466;-44
2023/04/15 08:14:05;;;;;;;56.00;50.10;;;;;;;8.57;100.00;101240.41;5057577;28;20450;-43
2023/04/15 08:16:33;;;;;;;61.40;49.30;;;;;;;8.62;100.00;101248.69;5059333;28;20558;-45
2023/04/15 08:19:03;;;;;;;55.60;49.83;;;;;;;8.62;100.00;101238.88;5059834;28;20463;-43
2023/04/15 08:21:31;;;;;;;54.73;48.97;;;;;;;8.61;100.00;101245.19;5059985;28;20503;-44
2023/04/15 08:24:00;;;;;;;53.23;47.83;;;;;;;8.67;100.00;101251.66;5059340;28;20462;-43
2023/04/15 08:26:28;;;;;;;54.77;48.97;;;;;;;8.79;100.00;101258.25;5059523;28;20459;-44
2023/04/15 08:28:56;;;;;;;57.77;50.17;;;;;;;8.80;100.00;101241.31;5059975;28;20432;-47
2023/04/15 08:31:24;;;;;;;50.30;45.70;;;;;;;8.80;100.00;101242.13;5059851;28;20441;-45
2023/04/15 08:33:53;;;;;;;54.63;49.03;;;;;;;8.94;100.00;101245.06;5059597;28;20427;-46
2023/04/15 08:36:22;;;;;;;50.30;45.50;;;;;;;8.95;100.00;101241.41;5058528;28;20546;-47
2023/04/15 08:38:50;;;;;;;54.20;48.10;;;;;;;8.90;100.00;101249.88;5059615;28;20504;-48
2023/04/15 08:41:22;;;;;;;52.33;47.40;;;;;;;8.89;100.00;101249.09;5059033;28;20427;-49
2023/04/15 08:43:54;;;;;;;53.93;48.17;;;;;;;9.04;100.00;101240.34;5058207;28;20436;-49
2023/04/15 08:46:22;;;;;;;52.93;47.20;;;;;;;9.02;100.00;101243.19;5058247;28;20463;-47
2023/04/15 08:48:51;;;;;;;49.40;44.97;;;;;;;9.00;100.00;101239.03;5057358;28;20481;-46
2023/04/15 08:51:19;;;;;;;50.57;45.67;;;;;;;9.04;100.00;101248.34;5058278;28;20928;-47
2023/04/15 08:53:49;;;;;;;49.90;45.13;;;;;;;9.07;100.00;101254.16;5057178;28;20428;-51
2023/04/15 08:56:19;;;;;;;52.80;47.43;;;;;;;8.94;100.00;101250.38;5056598;28;20455;-44
2023/04/15 08:58:47;;;;;;;52.63;47.30;;;;;;;8.90;100.00;101252.53;5057503;28;20858;-44
2023/04/15 09:01:15;;;;;;;53.07;48.00;;;;;;;9.03;100.00;101259.97;5056233;28;20435;-46
2023/04/15 09:03:44;;;;;;;52.17;46.90;;;;;;;9.02;100.00;101259.13;5057403;28;20439;-45
2023/04/15 09:06:12;;;;;;;54.13;48.67;;;;;;;9.00;100.00;101273.63;5054806;28;20462;-45
2023/04/15 09:08:40;;;;;;;51.03;46.50;;;;;;;8.97;100.00;101266.00;5057597;28;20429;-45
2023/04/15 09:11:09;;;;;;;53.73;48.47;;;;;;;9.02;100.00;101269.78;5055680;28;20526;-48
2023/04/15 09:13:37;;;;;;;51.93;46.70;;;;;;;9.04;100.00;101272.28;5056767;28;20435;-49
2023/04/15 09:16:06;;;;;;;52.10;46.97;;;;;;;9.12;100.00;101270.41;5056501;28;20458;-46
2023/04/15 09:18:37;;;;;;;50.17;45.60;;;;;;;9.21;100.00;101295.13;5056493;28;20471;-47
2023/04/15 09:21:08;;;;;;;48.97;44.37;;;;;;;9.28;100.00;101269.50;5057116;28;21025;-48
2023/04/15 09:23:36;;;;;;;50.67;45.80;;;;;;;9.34;100.00;101279.44;5056133;28;20475;-49
2023/04/15 09:26:05;;;;;;;51.50;46.70;;;;;;;9.38;100.00;101276.25;5056122;28;20475;-48
2023/04/15 09:28:41;;;;;;;49.53;44.43;;;;;;;9.47;100.00;101273.56;5072469;28;20434;-43
2023/04/15 09:31:10;;;;;;;46.27;42.27;;;;;;;9.62;100.00;101288.56;5056002;28;20518;-49
2023/04/15 09:33:55;;;;;;;46.13;42.07;;;;;;;9.99;100.00;101291.28;5057529;28;20423;-49
2023/04/15 09:36:23;;;;;;;49.27;44.73;;;;;;;10.00;100.00;101281.47;5057297;28;20459;-44
2023/04/15 09:38:55;;;;;;;46.43;42.00;;;;;;;10.04;100.00;101277.41;5058026;28;20471;-47
2023/04/15 09:41:24;;;;;;;47.27;42.90;;;;;;;9.97;100.00;101279.16;5057073;28;20940;-43
2023/04/15 09:43:53;;;;;;;49.80;45.33;;;;;;;9.87;100.00;101279.41;5057654;28;20492;-45
2023/04/15 09:46:20;;;;;;;46.30;41.70;;;;;;;9.82;100.00;101291.59;5056975;28;20456;-48
2023/04/15 09:49:07;;;;;;;46.60;42.33;;;;;;;9.83;100.00;101288.75;5056958;28;20450;-45
2023/04/15 09:51:36;;;;;;;46.70;42.63;;;;;;;9.87;100.00;101291.88;5057007;28;20515;-46
2023/04/15 09:54:04;;;;;;;47.60;43.20;;;;;;;9.96;100.00;101304.13;5055642;28;20442;-49
2023/04/15 09:56:35;;;;;;;46.33;42.23;;;;;;;10.01;100.00;101293.75;5056742;28;20515;-44
2023/04/15 09:59:05;;;;;;;44.97;40.97;;;;;;;10.05;100.00;101299.56;5057919;28;20475;-46
2023/04/15 10:01:33;;;;;;;46.17;42.47;;;;;;;10.11;100.00;101298.84;5056536;28;20435;-45
2023/04/15 10:04:03;;;;;;;49.53;44.67;;;;;;;10.32;100.00;101280.38;5056478;28;20438;-49
2023/04/15 10:06:32;;;;;;;47.97;43.77;;;;;;;10.50;100.00;101294.19;5056313;28;20447;-44
2023/04/15 10:09:00;;;;;;;47.13;43.00;;;;;;;10.69;100.00;101298.16;5055317;28;20424;-44
2023/04/15 10:11:29;;;;;;;47.43;42.93;;;;;;;10.77;100.00;101290.88;5055982;28;20431;-47
2023/04/15 10:13:58;;;;;;;46.77;42.90;;;;;;;10.85;100.00;101295.28;5055023;28;20520;-44
2023/04/15 10:16:29;;;;;;;45.40;41.50;;;;;;;10.85;100.00;101292.59;5055168;28;20473;-48
2023/04/15 10:18:58;;;;;;;43.50;39.90;;;;;;;11.08;100.00;101288.81;5056107;28;20855;-44
2023/04/15 10:21:27;;;;;;;45.23;41.57;;;;;;;11.34;100.00;101288.31;5056965;28;20481;-49
2023/04/15 10:23:56;;;;;;;42.77;39.07;;;;;;;11.68;100.00;101301.81;5056256;28;20429;-47
2023/04/15 10:26:24;;;;;;;44.57;40.43;;;;;;;11.98;100.00;101299.88;5056896;28;20456;-46
2023/04/15 10:28:53;;;;;;;41.83;38.43;;;;;;;12.12;100.00;101303.50;5057350;28;20431;-48
2023/04/15 10:31:21;;;;;;;42.37;38.87;;;;;;;12.33;100.00;101308.00;5057216;28;20518;-47
2023/04/15 10:33:51;;;;;;;44.27;40.57;;;;;;;12.11;100.00;101302.69;5056753;28;20514;-45
2023/04/15 10:36:20;;;;;;;42.57;39.00;;;;;;;12.33;100.00;101298.13;5054015;28;20455;-45
2023/04/15 10:38:47;;;;;;;41.67;38.43;;;;;;;12.32;100.00;101300.97;5055152;28;20863;-45
2023/04/15 10:41:18;;;;;;;42.50;38.73;;;;;;;12.45;100.00;101307.28;5056473;28;20987;-46
2023/04/15 10:43:49;;;;;;;45.50;41.60;;;;;;;12.66;100.00;101301.81;5056368;28;20855;-48
2023/04/15 10:46:19;;;;;;;44.33;40.63;;;;;;;12.69;100.00;101303.31;5055987;28;20474;-44
2023/04/15 10:48:49;;;;;;;43.67;40.17;;;;;;;12.74;100.00;101304.38;5056000;28;20439;-44
2023/04/15 10:51:26;;;;;;;43.43;39.83;;;;;;;12.97;100.00;101305.91;5056099;28;20431;-46
2023/04/15 10:53:57;;;;;;;45.57;41.80;;;;;;;12.98;100.00;101302.22;5057642;28;20423;-46
2023/04/15 10:56:25;;;;;;;43.10;39.23;;;;;;;12.98;100.00;101297.72;5057190;28;20459;-43
2023/04/15 10:58:53;;;;;;;44.70;41.10;;;;;;;13.05;100.00;101301.22;5058134;28;20526;-47
2023/04/15 11:01:22;;;;;;;42.73;38.77;;;;;;;12.94;100.00;101299.13;5057634;28;20449;-47
2023/04/15 11:03:50;;;;;;;44.73;41.23;;;;;;;12.98;100.00;101312.94;5057095;28;20491;-45
2023/04/15 11:06:20;;;;;;;44.23;40.53;;;;;;;12.87;100.00;101300.13;5055834;28;20525;-44
2023/04/15 11:09:02;;;;;;;43.77;40.23;;;;;;;13.03;100.00;101319.34;5056283;28;20427;-47